• Join FlightAware (Why Join?)
  • Login
  • US Flag 
06:24PM EST


 

Airport Tracker/Info


-or-


 

Live Flight TrackerFlight Track Log ✈ N9305N ✈ 16-Jan-2014 ✈ KPIE - KORL

Flight Track Log - Related Links

Times and Time Zones

All times are in EST time to prevent confusion due to time zone crossing. See the N9305N flight status page for this flight to view local times or setup timezone preferences in your user account.

Time Position Orientation Groundspeed Altitude Reporting Facility
EST Latitude Longitude Course Direction KTS MPH feet Rate Location/Type
12:38PM 27.9333 -82.7000 319° Northwest 78 90 900  Level Tampa TRACON
12:39PM 27.9500 -82.7167 319° Northwest 72 83 1,600 300 Climbing Tampa TRACON
12:40PM 27.9500 -82.7333 270° West 107 123 1,600 240 Level Tampa TRACON
12:41PM 27.9333 -82.7500 221° Southwest 104 120 2,100 600 Climbing Tampa TRACON
12:42PM 27.9167 -82.7167 119° Southeast 87 100 2,900 360 Climbing Tampa TRACON
12:43PM 27.9333 -82.6833 60° Northeast 125 144 3,000  Climbing Tampa TRACON
12:44PM 27.9333 -82.6500 90° East 119 137 3,000  Level Tampa TRACON
12:45PM 27.9500 -82.6167 60° Northeast 112 129 3,000  Level Tampa TRACON
12:46PM 27.9667 -82.5833 60° Northeast 115 132 3,000 -60 Level Tampa TRACON
12:47PM 27.9833 -82.5500 60° Northeast 140 161 2,900  Descending Tampa TRACON
12:48PM 27.9833 -82.5167 90° East 120 138 3,000 60 Climbing Tampa TRACON
12:49PM 27.9667 -82.4667 111° Southeast 122 140 3,100 180 Climbing Tampa TRACON
12:50PM 27.9667 -82.4333 90° East 112 129 3,400 360 Climbing Tampa TRACON
12:51PM 27.9833 -82.4000 60° Northeast 97 112 3,900 360 Climbing Tampa TRACON
12:52PM 28.0000 -82.3833 41° Northeast 112 129 4,100  Climbing Tampa TRACON
12:53PM 28.0333 -82.3667 24° Northeast 107 123 4,000 -60 Descending Tampa TRACON
12:54PM 28.0667 -82.3500 24° Northeast 103 119 4,000 -60 Level Tampa TRACON
12:55PM 28.0833 -82.3500 360° North 102 117 3,900  Descending Tampa TRACON
12:56PM 28.1000 -82.3167 60° Northeast 110 127 4,000  Climbing Tampa TRACON
12:57PM 28.1167 -82.2833 60° Northeast 118 136 4,000 240 Level Tampa TRACON
12:58PM 28.1333 -82.2500 60° Northeast 100 115 4,600 480 Climbing Tampa TRACON
12:59PM 28.1333 -82.2167 90° East 105 121 5,000 180 Climbing Tampa TRACON
01:00PM 28.1500 -82.1833 60° Northeast 123 142 5,000  Level Tampa TRACON
01:01PM 28.1667 -82.1500 60° Northeast 124 143 5,000  Level Tampa TRACON
01:03PM 28.2000 -82.0667 66° East 119 137 5,000  Level Orlando TRACON
01:04PM 28.2167 -82.0333 60° Northeast 119 137 5,000  Level Orlando TRACON
01:05PM 28.2167 -82.0000 90° East 118 136 5,000  Level Orlando TRACON
01:06PM 28.2333 -81.9667 60° Northeast 119 137 5,000  Level Orlando TRACON
01:07PM 28.2500 -81.9333 60° Northeast 122 140 5,000  Level Orlando TRACON
01:09PM 28.2667 -81.8833 69° East 127 146 5,000 -180 Level Orlando TRACON
01:10PM 28.2833 -81.8667 41° Northeast 110 127 4,700 -420 Descending Orlando TRACON
01:11PM 28.3000 -81.8333 60° Northeast 97 112 4,200 -360 Descending Orlando TRACON
01:12PM 28.3333 -81.8167 24° Northeast 106 122 4,000 -360 Descending Orlando TRACON
01:13PM 28.3500 -81.8000 41° Northeast 112 129 3,500 -540 Descending Orlando TRACON
01:14PM 28.3667 -81.7667 60° Northeast 110 127 3,000 -300 Descending Orlando TRACON
01:15PM 28.4000 -81.7500 24° Northeast 115 132 3,000  Level Orlando TRACON
01:16PM 28.4167 -81.7167 60° Northeast 112 129 3,000  Level Orlando TRACON
01:17PM 28.4500 -81.7000 24° Northeast 118 136 3,100  Climbing Orlando TRACON
01:18PM 28.4667 -81.6833 41° Northeast 115 132 3,000 -60 Descending Orlando TRACON
01:19PM 28.5000 -81.6500 41° Northeast 116 133 3,000  Level Orlando TRACON
01:19PM 28.5167 -81.6333 41° Northeast 109 125 3,000  Level Orlando TRACON
01:20PM 28.5333 -81.6000 60° Northeast 115 132 3,000  Level Orlando TRACON
01:21PM 28.5667 -81.5833 24° Northeast 122 140 3,000  Level Orlando TRACON
01:22PM 28.5833 -81.5500 60° Northeast 113 130 3,000  Level Orlando TRACON
01:23PM 28.6000 -81.5167 60° Northeast 124 143 3,000  Level Orlando TRACON
01:24PM 28.6167 -81.4833 60° Northeast 120 138 3,000  Level Orlando TRACON
01:25PM 28.6333 -81.4667 41° Northeast 117 135 3,000  Level Orlando TRACON
01:26PM 28.6500 -81.4167 69° East 124 143 3,000 -300 Level Orlando TRACON
01:28PM 28.6500 -81.3833 90° East 116 133 2,500 -600 Descending Orlando TRACON
01:29PM 28.6500 -81.3500 90° East 120 138 1,900 -420 Descending Orlando TRACON
01:30PM 28.6500 -81.3167 90° East 119 137 1,700 -180 Descending Orlando TRACON
01:31PM 28.6667 -81.2667 69° East 118 136 1,600 -60 Descending Orlando TRACON
01:32PM 28.6667 -81.2333 90° East 116 133 1,600  Level Orlando TRACON
01:33PM 28.6667 -81.2000 90° East 111 128 1,700  Climbing Orlando TRACON
01:34PM 28.6500 -81.1833 139° Southeast 101 116 1,700  Level Orlando TRACON
01:35PM 28.6167 -81.1833 180° South 110 127 1,700 -60 Level Orlando TRACON
01:36PM 28.6000 -81.2000 221° Southwest 89 102 1,600 -120 Descending Orlando TRACON
01:37PM 28.5833 -81.2167 221° Southwest 97 112 1,500  Descending Orlando TRACON
01:38PM 28.5833 -81.2500 270° West 78 90 1,600 -180 Climbing Orlando TRACON
01:39PM 28.5667 -81.2667 221° Southwest 82 94 1,200 -420 Descending Orlando TRACON
01:40PM 28.5667 -81.3000 270° West 76 87 800 -420 Descending Orlando TRACON